createdAt,value
2019-01-21T00:00:05.857Z,-5.90
2019-01-21T00:02:34.916Z,-5.90
2019-01-21T00:05:03.953Z,-5.90
2019-01-21T00:07:32.712Z,-5.90
2019-01-21T00:10:01.488Z,-6.00
2019-01-21T00:12:30.364Z,-6.00
2019-01-21T00:14:59.403Z,-6.00
2019-01-21T00:17:28.175Z,-6.00
2019-01-21T00:19:57.051Z,-6.00
2019-01-21T00:22:25.811Z,-6.00
2019-01-21T00:24:54.599Z,-6.10
2019-01-21T00:27:23.333Z,-6.10
2019-01-21T00:29:52.134Z,-6.10
2019-01-21T00:32:20.900Z,-6.10
2019-01-21T00:34:49.917Z,-6.10
2019-01-21T00:37:18.951Z,-6.10
2019-01-21T00:39:47.710Z,-6.20
2019-01-21T00:42:16.752Z,-6.20
2019-01-21T00:44:45.531Z,-6.20
2019-01-21T00:47:14.277Z,-6.20
2019-01-21T00:49:43.048Z,-6.20
2019-01-21T00:52:11.811Z,-6.20
2019-01-21T00:54:40.786Z,-6.20
2019-01-21T00:57:09.560Z,-6.20
2019-01-21T00:59:38.315Z,-6.20
2019-01-21T01:02:07.172Z,-6.20
2019-01-21T01:04:36.096Z,-6.20
2019-01-21T01:07:05.014Z,-6.20
2019-01-21T01:09:33.787Z,-6.30
2019-01-21T01:12:02.819Z,-6.30
2019-01-21T01:14:31.915Z,-6.30
2019-01-21T01:17:00.696Z,-6.30
2019-01-21T01:19:29.598Z,-6.30
2019-01-21T01:21:58.466Z,-6.30
2019-01-21T01:24:27.471Z,-6.30
2019-01-21T01:26:56.251Z,-6.30
2019-01-21T01:29:25.015Z,-6.20
2019-01-21T01:31:53.855Z,-6.30
2019-01-21T01:34:22.917Z,-6.30
2019-01-21T01:36:52.103Z,-6.30
2019-01-21T01:39:20.920Z,-6.30
2019-01-21T01:41:49.737Z,-6.30
2019-01-21T01:44:18.595Z,-6.30
2019-01-21T01:46:47.405Z,-6.30
2019-01-21T01:49:16.674Z,-6.40
2019-01-21T01:51:45.497Z,-6.30
2019-01-21T01:54:14.602Z,-6.40
2019-01-21T01:56:43.340Z,-6.40
2019-01-21T01:59:12.554Z,-6.50
2019-01-21T02:01:41.582Z,-6.50
2019-01-21T02:04:10.362Z,-6.50
2019-01-21T02:06:39.512Z,-6.50
2019-01-21T02:09:09.147Z,-6.50
2019-01-21T02:11:38.687Z,-6.50
2019-01-21T02:14:07.597Z,-6.50
2019-01-21T02:16:36.633Z,-6.50
2019-01-21T02:19:05.988Z,-6.50
2019-01-21T02:21:36.850Z,-6.50
2019-01-21T02:24:07.786Z,-6.50
2019-01-21T02:26:48.930Z,-6.50
2019-01-21T02:29:30.766Z,-6.50
2019-01-21T02:32:35.542Z,-6.50
2019-01-21T02:35:32.371Z,-6.50
2019-01-21T02:38:39.966Z,-6.60
2019-01-21T02:41:32.814Z,-6.60
2019-01-21T02:44:23.495Z,-6.60
2019-01-21T02:47:19.461Z,-6.60
2019-01-21T02:50:53.476Z,-6.60
2019-01-21T02:53:51.258Z,-6.60
2019-01-21T02:57:07.750Z,-6.60
2019-01-21T03:00:25.805Z,-6.60
2019-01-21T03:03:39.169Z,-6.60
2019-01-21T03:06:45.275Z,-6.60
2019-01-21T03:09:46.178Z,-6.60
2019-01-21T03:12:42.623Z,-6.60
2019-01-21T03:15:58.063Z,-6.70
2019-01-21T03:19:13.112Z,-6.70
2019-01-21T03:22:29.181Z,-6.70
2019-01-21T03:25:39.679Z,-6.70
2019-01-21T03:28:48.060Z,-6.70
2019-01-21T03:31:32.845Z,-6.70
2019-01-21T03:34:26.084Z,-6.70
2019-01-21T03:37:54.058Z,-6.70
2019-01-21T03:40:43.168Z,-6.70
2019-01-21T03:43:54.020Z,-6.70
2019-01-21T03:47:07.185Z,-6.70
2019-01-21T03:49:47.001Z,-6.70
2019-01-21T03:52:56.223Z,-6.60
2019-01-21T03:55:25.183Z,-6.60
2019-01-21T03:58:21.387Z,-6.60
2019-01-21T04:01:25.529Z,-6.60
2019-01-21T04:04:42.079Z,-6.70
2019-01-21T04:07:22.344Z,-6.70
2019-01-21T04:10:27.484Z,-6.70
2019-01-21T04:13:14.108Z,-6.70
2019-01-21T04:16:09.818Z,-6.70
2019-01-21T04:19:27.201Z,-6.70
2019-01-21T04:22:44.136Z,-6.70
2019-01-21T04:25:45.924Z,-6.70
2019-01-21T04:28:29.616Z,-6.70
2019-01-21T04:31:45.983Z,-6.70
2019-01-21T04:34:30.205Z,-6.70
2019-01-21T04:37:49.163Z,-6.80
2019-01-21T04:40:59.282Z,-6.80
2019-01-21T04:44:10.190Z,-6.80
2019-01-21T04:46:58.295Z,-6.90
2019-01-21T04:50:15.166Z,-6.90
2019-01-21T04:53:37.010Z,-6.90
2019-01-21T04:56:47.512Z,-7.00
2019-01-21T05:00:03.618Z,-7.00
2019-01-21T05:03:13.060Z,-7.00
2019-01-21T05:06:07.953Z,-7.00
2019-01-21T05:09:06.986Z,-7.00
2019-01-21T05:12:01.928Z,-7.00
2019-01-21T05:15:13.415Z,-7.00
2019-01-21T05:18:06.488Z,-7.00
2019-01-21T05:21:04.192Z,-7.00
2019-01-21T05:24:17.035Z,-7.00
2019-01-21T05:26:56.905Z,-7.00
2019-01-21T05:30:01.513Z,-7.00
2019-01-21T05:33:18.054Z,-7.00
2019-01-21T05:36:27.419Z,-7.00
2019-01-21T05:39:29.258Z,-7.10
2019-01-21T05:43:09.641Z,-7.10
2019-01-21T05:46:11.873Z,-7.10
2019-01-21T05:49:16.080Z,-7.10
2019-01-21T05:52:35.315Z,-7.10
2019-01-21T05:55:39.625Z,-7.10
2019-01-21T05:58:48.075Z,-7.10
2019-01-21T06:01:56.682Z,-7.10
2019-01-21T06:05:06.913Z,-7.20
2019-01-21T06:08:00.546Z,-7.20
2019-01-21T06:10:39.253Z,-7.20
2019-01-21T06:13:42.500Z,-7.20
2019-01-21T06:16:32.739Z,-7.10
2019-01-21T06:20:03.852Z,-7.10
2019-01-21T06:22:51.365Z,-7.20
2019-01-21T06:26:15.465Z,-7.20
2019-01-21T06:29:18.772Z,-7.20
2019-01-21T06:32:13.638Z,-7.20
2019-01-21T06:35:26.225Z,-7.20
2019-01-21T06:38:42.969Z,-7.20
2019-01-21T06:41:39.539Z,-7.20
2019-01-21T06:44:24.842Z,-7.10
2019-01-21T06:47:40.606Z,-7.10
2019-01-21T06:50:53.460Z,-7.00
2019-01-21T06:53:47.883Z,-7.00
2019-01-21T06:56:49.998Z,-6.90
2019-01-21T07:00:17.839Z,-6.90
2019-01-21T07:03:27.108Z,-6.80
2019-01-21T07:06:36.417Z,-6.80
2019-01-21T07:09:35.127Z,-6.70
2019-01-21T07:12:43.635Z,-6.60
2019-01-21T07:15:34.659Z,-6.60
2019-01-21T07:18:38.743Z,-6.50
2019-01-21T07:21:24.361Z,-6.40
2019-01-21T07:24:40.333Z,-6.30
2019-01-21T07:27:37.120Z,-6.30
2019-01-21T07:30:26.994Z,-6.20
2019-01-21T07:33:25.810Z,-6.10
2019-01-21T07:36:23.384Z,-6.00
2019-01-21T07:39:37.758Z,-6.00
2019-01-21T07:42:34.402Z,-5.90
2019-01-21T07:45:31.152Z,-5.80
2019-01-21T07:48:34.185Z,-5.80
2019-01-21T07:51:38.837Z,-5.70
2019-01-21T07:54:54.185Z,-5.50
2019-01-21T07:57:46.062Z,-5.40
2019-01-21T08:01:10.245Z,-5.30
2019-01-21T08:04:12.664Z,-5.10
2019-01-21T08:07:24.874Z,-5.00
2019-01-21T08:10:15.719Z,-4.90
2019-01-21T08:12:59.086Z,-4.80
2019-01-21T08:16:06.354Z,-4.70
2019-01-21T08:19:13.794Z,-4.60
2019-01-21T08:22:05.663Z,-4.60
2019-01-21T08:25:30.491Z,-4.50
2019-01-21T08:28:13.933Z,-4.40
2019-01-21T08:30:54.299Z,-4.30
2019-01-21T08:34:07.171Z,-4.30
2019-01-21T08:37:08.932Z,-4.20
2019-01-21T08:40:17.997Z,-4.20
2019-01-21T08:42:56.384Z,-4.10
2019-01-21T08:46:11.259Z,-4.10
2019-01-21T08:49:17.140Z,-4.00
2019-01-21T08:52:11.280Z,-4.00
2019-01-21T08:55:18.320Z,-3.90
2019-01-21T08:58:43.593Z,-3.90
2019-01-21T09:01:41.373Z,-3.80
2019-01-21T09:04:39.552Z,-3.80
2019-01-21T09:07:30.633Z,-3.80
2019-01-21T09:10:46.764Z,-3.70
2019-01-21T09:13:29.611Z,-3.70
2019-01-21T09:16:22.555Z,-3.70
2019-01-21T09:19:37.344Z,-3.70
2019-01-21T09:22:35.928Z,-3.70
2019-01-21T09:25:28.394Z,-3.60
2019-01-21T09:28:47.767Z,-3.60
2019-01-21T09:32:02.355Z,-3.60
2019-01-21T09:34:52.978Z,-3.60
2019-01-21T09:37:57.230Z,-3.50
2019-01-21T09:40:38.156Z,-3.50
2019-01-21T09:43:29.341Z,-3.50
2019-01-21T09:46:26.292Z,-3.40
2019-01-21T09:48:53.740Z,-3.40
2019-01-21T09:51:23.020Z,-3.30
2019-01-21T09:53:54.425Z,-3.30
2019-01-21T09:56:23.823Z,-3.20
2019-01-21T09:58:54.878Z,-3.20
2019-01-21T10:01:26.251Z,-3.10
2019-01-21T10:03:55.506Z,-3.10
2019-01-21T10:06:32.410Z,-3.00
2019-01-21T10:09:47.279Z,-3.00
2019-01-21T10:12:59.358Z,-3.00
2019-01-21T10:15:59.587Z,-2.90
2019-01-21T10:18:59.217Z,-2.90
2019-01-21T10:21:52.746Z,-2.90
2019-01-21T10:24:53.488Z,-2.80
2019-01-21T10:27:55.906Z,-2.80
2019-01-21T10:30:59.593Z,-2.70
2019-01-21T10:34:09.083Z,-2.60
2019-01-21T10:37:22.412Z,-2.50
2019-01-21T10:40:02.178Z,-2.50
2019-01-21T10:42:38.981Z,-2.40
2019-01-21T10:45:47.961Z,-2.30
2019-01-21T10:48:51.707Z,-2.30
2019-01-21T10:52:02.768Z,-2.20
2019-01-21T10:55:30.743Z,-2.20
2019-01-21T10:58:23.513Z,-2.10
2019-01-21T11:01:43.697Z,-2.10
2019-01-21T11:04:52.345Z,-2.20
2019-01-21T11:07:43.994Z,-2.20
2019-01-21T11:10:23.859Z,-2.20
2019-01-21T11:13:14.686Z,-2.30
2019-01-21T11:16:18.239Z,-2.30
2019-01-21T11:19:10.795Z,-2.30
2019-01-21T11:22:29.860Z,-2.30
2019-01-21T11:25:28.444Z,-2.30
2019-01-21T11:28:50.266Z,-2.30
2019-01-21T11:31:57.974Z,-2.30
2019-01-21T11:34:58.756Z,-2.30
2019-01-21T11:38:23.672Z,-2.30
2019-01-21T11:41:35.466Z,-2.20
2019-01-21T11:44:39.950Z,-2.10
2019-01-21T11:47:32.678Z,-2.00
2019-01-21T11:50:54.618Z,-1.90
2019-01-21T11:54:01.405Z,-1.90
2019-01-21T11:56:56.149Z,-1.80
2019-01-21T12:00:12.043Z,-1.80
2019-01-21T12:03:15.304Z,-1.80
2019-01-21T12:06:11.498Z,-1.70
2019-01-21T12:09:34.447Z,-1.60
2019-01-21T12:12:22.014Z,-1.60
2019-01-21T12:15:26.359Z,-1.50
2019-01-21T12:18:23.508Z,-1.50
2019-01-21T12:21:21.534Z,-1.50
2019-01-21T12:24:18.135Z,-1.50
2019-01-21T12:27:25.484Z,-1.50
2019-01-21T12:30:30.673Z,-1.50
2019-01-21T12:33:28.276Z,-1.50
2019-01-21T12:36:18.765Z,-1.40
2019-01-21T12:39:17.998Z,-1.40
2019-01-21T12:42:06.709Z,-1.40
2019-01-21T12:45:15.375Z,-1.30
2019-01-21T12:48:11.291Z,-1.30
2019-01-21T12:51:26.020Z,-1.30
2019-01-21T12:54:20.464Z,-1.30
2019-01-21T12:57:30.588Z,-1.30
2019-01-21T13:00:21.555Z,-1.20
2019-01-21T13:03:26.256Z,-1.20
2019-01-21T13:06:17.654Z,-1.20
2019-01-21T13:09:11.260Z,-1.10
2019-01-21T13:11:59.888Z,-1.10
2019-01-21T13:14:55.717Z,-1.10
2019-01-21T13:17:41.786Z,-1.00
2019-01-21T13:21:06.815Z,-1.00
2019-01-21T13:24:15.837Z,-0.90
2019-01-21T13:27:12.200Z,-0.90
2019-01-21T13:29:49.476Z,-0.90
2019-01-21T13:32:53.257Z,-0.90
2019-01-21T13:35:36.656Z,-0.90
2019-01-21T13:38:19.186Z,-0.90
2019-01-21T13:41:30.985Z,-0.90
2019-01-21T13:44:43.819Z,-0.90
2019-01-21T13:47:51.909Z,-0.90
2019-01-21T13:50:29.693Z,-0.90
2019-01-21T13:53:43.897Z,-0.90
2019-01-21T13:56:49.524Z,-0.90
2019-01-21T14:00:11.311Z,-0.90
2019-01-21T14:02:46.046Z,-0.80
2019-01-21T14:05:43.118Z,-0.80
2019-01-21T14:08:35.198Z,-0.80
2019-01-21T14:11:18.475Z,-0.80
2019-01-21T14:13:52.856Z,-0.80
2019-01-21T14:17:12.871Z,-0.80
2019-01-21T14:20:16.849Z,-0.80
2019-01-21T14:23:13.772Z,-0.90
2019-01-21T14:26:10.853Z,-0.90
2019-01-21T14:29:17.325Z,-0.90
2019-01-21T14:32:16.904Z,-1.00
2019-01-21T14:35:14.090Z,-1.00
2019-01-21T14:38:27.951Z,-1.00
2019-01-21T14:41:17.516Z,-1.00
2019-01-21T14:44:48.530Z,-1.00
2019-01-21T14:48:01.485Z,-1.00
2019-01-21T14:50:59.739Z,-1.00
2019-01-21T14:53:53.554Z,-1.00
2019-01-21T14:56:59.212Z,-1.00
2019-01-21T14:59:55.572Z,-1.00
2019-01-21T15:02:48.120Z,-1.00
2019-01-21T15:05:49.519Z,-1.00
2019-01-21T15:08:45.379Z,-1.00
2019-01-21T15:11:42.460Z,-1.00
2019-01-21T15:14:41.788Z,-1.00
2019-01-21T15:17:49.880Z,-1.00
2019-01-21T15:20:44.261Z,-1.00
2019-01-21T15:24:02.983Z,-1.00
2019-01-21T15:26:49.501Z,-1.00
2019-01-21T15:29:43.668Z,-1.00
2019-01-21T15:33:07.188Z,-1.00
2019-01-21T15:35:58.542Z,-1.10
2019-01-21T15:39:08.941Z,-1.10
2019-01-21T15:42:22.459Z,-1.20
2019-01-21T15:45:24.495Z,-1.20
2019-01-21T15:48:28.151Z,-1.20
2019-01-21T15:51:18.573Z,-1.30
2019-01-21T15:54:12.167Z,-1.30
2019-01-21T15:56:58.178Z,-1.40
2019-01-21T15:59:59.849Z,-1.40
2019-01-21T16:02:39.510Z,-1.40
2019-01-21T16:05:23.170Z,-1.50
2019-01-21T16:07:56.570Z,-1.50
2019-01-21T16:11:20.134Z,-1.50
2019-01-21T16:13:59.478Z,-1.50
2019-01-21T16:16:57.101Z,-1.50
2019-01-21T16:19:37.266Z,-1.50
2019-01-21T16:22:59.910Z,-1.50
2019-01-21T16:25:37.666Z,-1.50
2019-01-21T16:28:40.273Z,-1.60
2019-01-21T16:31:29.630Z,-1.60
2019-01-21T16:34:33.791Z,-1.60
2019-01-21T16:37:33.024Z,-1.60
2019-01-21T16:40:29.617Z,-1.60
2019-01-21T16:42:58.791Z,-1.70
2019-01-21T16:45:27.743Z,-1.70
2019-01-21T16:47:56.642Z,-1.70
2019-01-21T16:50:25.422Z,-1.70
2019-01-21T16:52:54.349Z,-1.70
2019-01-21T16:55:23.449Z,-1.70
2019-01-21T16:57:52.372Z,-1.80
2019-01-21T17:00:21.593Z,-1.80
2019-01-21T17:02:50.605Z,-1.70
2019-01-21T17:05:19.633Z,-1.70
2019-01-21T17:07:48.396Z,-1.70
2019-01-21T17:10:17.581Z,-1.60
2019-01-21T17:12:46.576Z,-1.60
2019-01-21T17:15:15.754Z,-1.50
2019-01-21T17:17:44.843Z,-1.50
2019-01-21T17:20:17.099Z,-1.50
2019-01-21T17:22:45.865Z,-1.50
2019-01-21T17:25:15.188Z,-1.50
2019-01-21T17:27:44.078Z,-1.40
2019-01-21T17:30:14.314Z,-1.40
2019-01-21T17:32:43.134Z,-1.40
2019-01-21T17:35:12.506Z,-1.40
2019-01-21T17:37:41.453Z,-1.40
2019-01-21T17:40:12.467Z,-1.40
2019-01-21T17:42:41.276Z,-1.40
2019-01-21T17:45:13.964Z,-1.40
2019-01-21T17:47:43.122Z,-1.30
2019-01-21T17:50:13.094Z,-1.30
2019-01-21T17:52:41.848Z,-1.40
2019-01-21T17:55:11.094Z,-1.30
2019-01-21T17:57:39.855Z,-1.40
2019-01-21T18:00:11.334Z,-1.40
2019-01-21T18:02:40.222Z,-1.40
2019-01-21T18:05:09.166Z,-1.40
2019-01-21T18:07:38.512Z,-1.30
2019-01-21T18:10:10.526Z,-1.30
2019-01-21T18:12:39.579Z,-1.30
2019-01-21T18:15:10.196Z,-1.30
2019-01-21T18:17:38.983Z,-1.30
2019-01-21T18:20:11.210Z,-1.30
2019-01-21T18:22:40.061Z,-1.20
2019-01-21T18:25:10.175Z,-1.20
2019-01-21T18:27:38.954Z,-1.20
2019-01-21T18:30:11.319Z,-1.20
2019-01-21T18:32:40.499Z,-1.10
2019-01-21T18:35:10.558Z,-1.10
2019-01-21T18:37:39.458Z,-1.10
2019-01-21T18:40:11.109Z,-1.10
2019-01-21T18:42:40.014Z,-1.00
2019-01-21T18:45:10.002Z,-1.00
2019-01-21T18:47:38.897Z,-1.00
2019-01-21T18:50:08.672Z,-1.00
2019-01-21T18:52:37.718Z,-0.90
2019-01-21T18:55:06.844Z,-0.90
2019-01-21T18:57:36.046Z,-0.90
2019-01-21T19:00:08.435Z,-0.90
2019-01-21T19:02:37.195Z,-0.80
2019-01-21T19:05:06.248Z,-0.80
2019-01-21T19:07:35.017Z,-0.80
2019-01-21T19:10:04.486Z,-0.80
2019-01-21T19:12:33.255Z,-0.80
2019-01-21T19:15:02.123Z,-0.70
2019-01-21T19:17:30.969Z,-0.70
2019-01-21T19:19:59.790Z,-0.70
2019-01-21T19:22:28.577Z,-0.70
2019-01-21T19:24:57.369Z,-0.70
2019-01-21T19:27:26.261Z,-0.70
2019-01-21T19:29:55.252Z,-0.80
2019-01-21T19:32:24.127Z,-0.80
2019-01-21T19:34:52.897Z,-0.80
2019-01-21T19:37:21.951Z,-0.90
2019-01-21T19:39:50.729Z,-0.90
2019-01-21T19:42:19.538Z,-1.00
2019-01-21T19:44:48.318Z,-1.00
2019-01-21T19:47:17.144Z,-1.00
2019-01-21T19:49:46.217Z,-1.10
2019-01-21T19:52:15.110Z,-1.10
2019-01-21T19:54:44.148Z,-1.10
2019-01-21T19:57:13.189Z,-1.20
2019-01-21T19:59:42.109Z,-1.20
2019-01-21T20:02:11.020Z,-1.20
2019-01-21T20:04:39.774Z,-1.20
2019-01-21T20:07:08.923Z,-1.20
2019-01-21T20:09:37.689Z,-1.20
2019-01-21T20:12:06.875Z,-1.20
2019-01-21T20:14:35.733Z,-1.20
2019-01-21T20:17:04.643Z,-1.20
2019-01-21T20:19:33.417Z,-1.20
2019-01-21T20:22:07.264Z,-1.20
2019-01-21T20:24:33.090Z,-1.20
2019-01-21T20:27:03.001Z,-1.20
2019-01-21T20:29:32.197Z,-1.20
2019-01-21T20:32:01.055Z,-1.20
2019-01-21T20:34:30.075Z,-1.20
2019-01-21T20:36:58.844Z,-1.20
2019-01-21T20:39:27.718Z,-1.30
2019-01-21T20:41:56.523Z,-1.30
2019-01-21T20:44:25.579Z,-1.30
2019-01-21T20:46:54.439Z,-1.30
2019-01-21T20:49:23.497Z,-1.30
2019-01-21T20:51:52.296Z,-1.30
2019-01-21T20:54:21.130Z,-1.30
2019-01-21T20:56:50.183Z,-1.30
2019-01-21T20:59:19.002Z,-1.30
2019-01-21T21:01:47.824Z,-1.30
2019-01-21T21:04:16.732Z,-1.30
2019-01-21T21:06:45.880Z,-1.30
2019-01-21T21:09:14.943Z,-1.40
2019-01-21T21:11:43.726Z,-1.30
2019-01-21T21:14:12.854Z,-1.30
2019-01-21T21:16:41.619Z,-1.30
2019-01-21T21:19:10.749Z,-1.30
2019-01-21T21:21:39.559Z,-1.30
2019-01-21T21:24:08.430Z,-1.30
2019-01-21T21:26:37.259Z,-1.40
2019-01-21T21:29:06.462Z,-1.40
2019-01-21T21:31:35.217Z,-1.40
2019-01-21T21:34:04.118Z,-1.40
2019-01-21T21:36:33.114Z,-1.40
2019-01-21T21:39:02.010Z,-1.30
2019-01-21T21:41:30.786Z,-1.30
2019-01-21T21:43:59.574Z,-1.30
2019-01-21T21:46:28.370Z,-1.30
2019-01-21T21:48:57.202Z,-1.20
2019-01-21T21:51:26.278Z,-1.20
2019-01-21T21:53:55.042Z,-1.20
2019-01-21T21:56:24.000Z,-1.10
2019-01-21T21:58:53.318Z,-1.10
2019-01-21T22:01:24.011Z,-1.00
2019-01-21T22:03:52.671Z,-1.00
2019-01-21T22:06:22.031Z,-1.00
2019-01-21T22:08:51.712Z,-1.00
2019-01-21T22:11:20.851Z,-1.00
2019-01-21T22:13:49.731Z,-0.90
2019-01-21T22:16:18.596Z,-0.90
2019-01-21T22:18:47.389Z,-0.90
2019-01-21T22:21:16.519Z,-0.80
2019-01-21T22:23:45.957Z,-0.80
2019-01-21T22:26:15.282Z,-0.80
2019-01-21T22:28:44.248Z,-0.80
2019-01-21T22:31:13.159Z,-0.80
2019-01-21T22:33:42.160Z,-0.80
2019-01-21T22:36:11.001Z,-0.80
2019-01-21T22:38:39.805Z,-0.80
2019-01-21T22:41:09.133Z,-0.70
2019-01-21T22:43:37.926Z,-0.70
2019-01-21T22:46:06.859Z,-0.70
2019-01-21T22:48:35.751Z,-0.70
2019-01-21T22:51:04.575Z,-0.70
2019-01-21T22:53:33.379Z,-0.70
2019-01-21T22:56:02.147Z,-0.70
2019-01-21T22:58:30.952Z,-0.70
2019-01-21T23:01:22.928Z,-0.70
2019-01-21T23:03:51.993Z,-0.70
2019-01-21T23:06:21.298Z,-0.60
2019-01-21T23:08:50.353Z,-0.60
2019-01-21T23:11:19.340Z,-0.60
2019-01-21T23:13:48.598Z,-0.60
2019-01-21T23:16:17.965Z,-0.60
2019-01-21T23:18:46.796Z,-0.60
2019-01-21T23:21:15.930Z,-0.60
2019-01-21T23:23:44.977Z,-0.60
2019-01-21T23:26:13.890Z,-0.60
2019-01-21T23:28:42.820Z,-0.60
2019-01-21T23:31:11.582Z,-0.60
2019-01-21T23:33:40.690Z,-0.60
2019-01-21T23:36:09.884Z,-0.60
2019-01-21T23:38:39.022Z,-0.60
2019-01-21T23:41:07.766Z,-0.60
2019-01-21T23:43:36.726Z,-0.50
2019-01-21T23:46:05.919Z,-0.60
2019-01-21T23:48:34.770Z,-0.60
2019-01-21T23:51:03.615Z,-0.50
2019-01-21T23:53:32.368Z,-0.50
2019-01-21T23:56:01.167Z,-0.50
2019-01-21T23:58:29.939Z,-0.50
